createdAt,value
2018-12-09T00:02:10.973Z,96293.38
2018-12-09T00:07:17.064Z,96297.78
2018-12-09T00:12:21.994Z,96300.15
2018-12-09T00:17:26.866Z,96306.97
2018-12-09T00:22:30.820Z,96298.05
2018-12-09T00:27:33.333Z,96272.88
2018-12-09T00:32:35.656Z,96236.53
2018-12-09T00:37:38.098Z,96199.98
2018-12-09T00:42:43.577Z,96214.36
2018-12-09T00:47:44.824Z,96207.28
2018-12-09T00:52:47.113Z,96234.17
2018-12-09T00:57:49.424Z,96220.50
2018-12-09T01:02:51.677Z,96203.89
2018-12-09T01:07:53.951Z,96202.11
2018-12-09T01:12:56.267Z,96199.88
2018-12-09T01:17:58.595Z,96162.38
2018-12-09T01:23:00.897Z,96161.41
2018-12-09T01:28:03.363Z,96151.63
2018-12-09T01:33:05.741Z,96160.25
2018-12-09T01:38:08.045Z,96163.61
2018-12-09T01:43:10.432Z,96169.59
2018-12-09T01:48:12.856Z,96170.20
2018-12-09T01:53:26.970Z,96165.02
2018-12-09T01:58:29.548Z,96155.20
2018-12-09T02:03:32.144Z,96151.25
2018-12-09T02:08:34.503Z,96138.64
2018-12-09T02:13:36.854Z,96133.43
2018-12-09T02:18:39.260Z,96125.27
2018-12-09T02:23:41.879Z,96126.59
2018-12-09T02:28:44.210Z,96111.91
2018-12-09T02:33:46.645Z,96103.80
2018-12-09T02:38:49.242Z,96094.71
2018-12-09T02:43:51.581Z,96097.17
2018-12-09T02:48:53.880Z,96084.89
2018-12-09T02:53:56.335Z,96116.03
2018-12-09T02:58:58.855Z,96110.66
2018-12-09T03:04:01.284Z,96106.45
2018-12-09T03:09:06.497Z,96117.25
2018-12-09T03:14:09.950Z,96131.06
2018-12-09T03:19:12.300Z,96130.69
2018-12-09T03:24:14.653Z,96121.52
2018-12-09T03:29:17.686Z,96144.85
2018-12-09T03:34:19.967Z,96132.24
2018-12-09T03:39:22.668Z,96143.34
2018-12-09T03:44:24.947Z,96159.81
2018-12-09T03:49:27.291Z,96140.42
2018-12-09T03:54:29.577Z,96131.41
2018-12-09T03:59:31.922Z,96134.59
2018-12-09T04:04:35.483Z,96122.83
2018-12-09T04:09:38.190Z,96149.08
2018-12-09T04:14:40.596Z,96165.25
2018-12-09T04:19:42.882Z,96199.42
2018-12-09T04:24:45.138Z,96199.05
2018-12-09T04:29:47.479Z,96189.63
2018-12-09T04:34:49.951Z,96205.40
2018-12-09T04:39:52.866Z,96208.97
2018-12-09T04:44:55.112Z,96183.24
2018-12-09T04:49:57.381Z,96192.64
2018-12-09T04:54:59.632Z,96212.73
2018-12-09T05:00:13.625Z,96217.66
2018-12-09T05:05:15.887Z,96202.91
2018-12-09T05:10:18.309Z,96217.93
2018-12-09T05:15:20.603Z,96219.67
2018-12-09T05:20:22.844Z,96235.34
2018-12-09T05:25:25.108Z,96230.75
2018-12-09T05:30:27.339Z,96229.13
2018-12-09T05:35:29.606Z,96233.70
2018-12-09T05:40:49.489Z,96244.45
2018-12-09T05:45:51.733Z,96253.03
2018-12-09T05:50:54.062Z,96247.89
2018-12-09T05:55:57.113Z,96257.09
2018-12-09T06:00:59.604Z,96259.47
2018-12-09T06:06:01.984Z,96256.11
2018-12-09T06:11:04.442Z,96247.56
2018-12-09T06:16:06.680Z,96251.60
2018-12-09T06:21:08.961Z,96251.30
2018-12-09T06:26:11.205Z,96256.93
2018-12-09T06:31:13.732Z,96279.70
2018-12-09T06:36:16.023Z,96268.44
2018-12-09T06:41:18.303Z,96267.98
2018-12-09T06:46:20.542Z,96311.00
2018-12-09T06:51:22.973Z,96285.42
2018-12-09T06:56:26.459Z,96295.38
2018-12-09T07:01:30.746Z,96302.44
2018-12-09T07:06:34.168Z,96310.22
2018-12-09T07:11:36.437Z,96301.31
2018-12-09T07:21:54.284Z,96321.84
2018-12-09T07:26:56.561Z,96329.30
2018-12-09T07:31:58.989Z,96328.55
2018-12-09T07:37:01.293Z,96341.09
2018-12-09T07:42:03.544Z,96340.84
2018-12-09T07:47:06.075Z,96358.80
2018-12-09T07:52:08.474Z,96367.83
2018-12-09T07:57:11.100Z,96368.07
2018-12-09T08:02:13.343Z,96376.23
2018-12-09T08:07:15.645Z,96377.17
2018-12-09T08:12:18.016Z,96380.80
2018-12-09T08:17:20.239Z,96400.34
2018-12-09T08:22:22.511Z,96394.65
2018-12-09T08:27:24.875Z,96390.59
2018-12-09T08:32:27.095Z,96405.75
2018-12-09T08:37:29.325Z,96411.98
2018-12-09T08:42:31.621Z,96408.78
2018-12-09T08:47:33.964Z,96413.24
2018-12-09T08:52:36.202Z,96425.13
2018-12-09T08:57:38.431Z,96425.56
2018-12-09T09:02:40.667Z,96428.70
2018-12-09T09:07:43.044Z,96431.14
2018-12-09T09:12:45.366Z,96429.60
2018-12-09T09:17:47.755Z,96433.26
2018-12-09T09:22:50.046Z,96442.58
2018-12-09T09:27:53.450Z,96447.85
2018-12-09T09:32:55.723Z,96453.95
2018-12-09T09:37:58.917Z,96446.70
2018-12-09T09:43:01.214Z,96460.14
2018-12-09T09:48:04.868Z,96455.67
2018-12-09T09:53:07.336Z,96452.43
2018-12-09T09:58:09.581Z,96469.76
2018-12-09T10:03:12.055Z,96450.44
2018-12-09T10:08:14.399Z,96439.02
2018-12-09T10:13:16.919Z,96461.03
2018-12-09T10:18:19.165Z,96445.48
2018-12-09T10:23:21.442Z,96459.71
2018-12-09T10:28:24.812Z,96457.83
2018-12-09T10:33:27.049Z,96467.11
2018-12-09T10:38:29.339Z,96455.25
2018-12-09T10:43:31.607Z,96456.00
2018-12-09T10:48:33.880Z,96456.31
2018-12-09T10:53:36.209Z,96489.81
2018-12-09T10:58:38.447Z,96455.83
2018-12-09T11:03:40.720Z,96462.53
2018-12-09T11:08:42.967Z,96454.87
2018-12-09T11:13:45.353Z,96448.08
2018-12-09T11:18:47.625Z,96460.75
2018-12-09T11:23:49.863Z,96456.39
2018-12-09T11:28:52.515Z,96462.34
2018-12-09T11:33:54.765Z,96457.02
2018-12-09T11:38:56.988Z,96468.88
2018-12-09T11:43:59.352Z,96481.50
2018-12-09T11:49:01.654Z,96494.33
2018-12-09T11:54:04.067Z,96462.42
2018-12-09T11:59:06.301Z,96470.80
2018-12-09T12:04:08.564Z,96468.88
2018-12-09T12:09:10.804Z,96491.03
2018-12-09T12:14:13.191Z,96469.12
2018-12-09T12:19:15.458Z,96483.62
2018-12-09T12:24:17.701Z,96500.91
2018-12-09T12:29:19.942Z,96519.08
2018-12-09T12:34:22.364Z,96544.73
2018-12-09T12:39:24.894Z,96560.02
2018-12-09T12:44:27.344Z,96577.94
2018-12-09T12:49:29.779Z,96597.73
2018-12-09T12:54:32.127Z,96593.68
2018-12-09T12:59:34.377Z,96602.91
2018-12-09T13:04:36.645Z,96590.64
2018-12-09T13:09:38.950Z,96605.38
2018-12-09T13:14:41.214Z,96614.14
2018-12-09T13:19:43.479Z,96610.47
2018-12-09T13:24:45.721Z,96612.59
2018-12-09T13:29:47.962Z,96595.33
2018-12-09T13:34:51.455Z,96606.77
2018-12-09T13:39:53.687Z,96616.64
2018-12-09T13:44:55.927Z,96656.25
2018-12-09T13:49:58.212Z,96643.09
2018-12-09T13:55:00.464Z,96649.45
2018-12-09T14:00:03.273Z,96650.00
2018-12-09T14:05:05.833Z,96667.67
2018-12-09T14:10:08.201Z,96673.30
2018-12-09T14:15:10.741Z,96679.48
2018-12-09T14:20:13.107Z,96683.65
2018-12-09T14:25:15.569Z,96680.38
2018-12-09T14:30:17.850Z,96689.34
2018-12-09T14:35:20.138Z,96696.51
2018-12-09T14:40:22.503Z,96709.48
2018-12-09T14:45:24.863Z,96724.36
2018-12-09T14:50:27.103Z,96730.53
2018-12-09T14:55:29.368Z,96746.69
2018-12-09T15:00:31.654Z,96760.39
2018-12-09T15:05:35.045Z,96761.45
2018-12-09T15:10:37.267Z,96772.45
2018-12-09T15:15:39.542Z,96770.23
2018-12-09T15:20:41.809Z,96788.09
2018-12-09T15:25:44.072Z,96791.77
2018-12-09T15:30:46.336Z,96803.52
2018-12-09T15:35:48.589Z,96812.92
2018-12-09T15:40:51.994Z,96815.62
2018-12-09T15:45:54.239Z,96819.61
2018-12-09T15:50:56.651Z,96827.88
2018-12-09T15:55:58.933Z,96841.59
2018-12-09T16:01:01.200Z,96846.41
2018-12-09T16:06:03.596Z,96860.30
2018-12-09T16:11:05.883Z,96837.08
2018-12-09T16:16:08.152Z,96848.13
2018-12-09T16:21:10.454Z,96858.72
2018-12-09T16:26:12.764Z,96881.58
2018-12-09T16:31:14.993Z,96869.55
2018-12-09T16:36:17.216Z,96866.27
2018-12-09T16:41:19.511Z,96888.45
2018-12-09T16:46:21.775Z,96887.33
2018-12-09T16:51:24.031Z,96887.09
2018-12-09T16:56:26.366Z,96912.09
2018-12-09T17:01:29.727Z,96918.80
2018-12-09T17:06:31.965Z,96927.86
2018-12-09T17:11:34.384Z,96943.52
2018-12-09T17:16:36.627Z,96963.81
2018-12-09T17:21:40.272Z,96966.53
2018-12-09T17:26:42.552Z,96989.78
2018-12-09T17:31:45.615Z,96985.36
2018-12-09T17:36:48.029Z,96997.13
2018-12-09T17:41:51.861Z,97011.60
2018-12-09T17:46:54.170Z,97030.14
2018-12-09T17:51:56.520Z,97024.98
2018-12-09T17:56:58.792Z,97039.75
2018-12-09T18:02:01.043Z,97039.44
2018-12-09T18:07:03.353Z,97051.97
2018-12-09T18:12:05.764Z,97058.03
2018-12-09T18:17:09.193Z,97038.32
2018-12-09T18:22:11.457Z,97056.22
2018-12-09T18:27:13.684Z,97077.34
2018-12-09T18:32:16.248Z,97076.45
2018-12-09T18:37:18.980Z,97105.89
2018-12-09T18:42:21.238Z,97113.47
2018-12-09T18:47:23.472Z,97113.59
2018-12-09T18:52:25.735Z,97143.15
2018-12-09T18:57:28.038Z,97143.98
2018-12-09T19:02:30.587Z,97150.22
2018-12-09T19:07:32.951Z,97162.04
2018-12-09T19:12:35.230Z,97170.33
2018-12-09T19:17:37.553Z,97191.76
2018-12-09T19:22:40.134Z,97191.28
2018-12-09T19:27:42.383Z,97198.70
2018-12-09T19:32:44.820Z,97220.74
2018-12-09T19:37:47.177Z,97224.80
2018-12-09T19:42:49.484Z,97235.63
2018-12-09T19:47:51.793Z,97269.05
2018-12-09T19:52:54.091Z,97270.38
2018-12-09T19:57:56.334Z,97293.64
2018-12-09T20:02:58.604Z,97300.92
2018-12-09T20:08:00.891Z,97305.90
2018-12-09T20:13:03.201Z,97328.62
2018-12-09T20:18:06.549Z,97348.03
2018-12-09T20:23:08.786Z,97345.89
2018-12-09T20:28:11.108Z,97346.53
2018-12-09T20:33:13.366Z,97359.84
2018-12-09T20:38:15.679Z,97367.41
2018-12-09T20:43:17.912Z,97373.88
2018-12-09T20:48:20.181Z,97376.42
2018-12-09T20:53:22.480Z,97379.65
2018-12-09T20:58:24.951Z,97396.73
2018-12-09T21:03:27.223Z,97387.53
2018-12-09T21:08:29.564Z,97380.44
2018-12-09T21:13:32.645Z,97400.56
2018-12-09T21:18:34.874Z,97406.42
2018-12-09T21:23:37.757Z,97419.95
2018-12-09T21:28:39.996Z,97443.69
2018-12-09T21:33:42.311Z,97461.44
2018-12-09T21:38:44.575Z,97528.42
2018-12-09T21:43:46.803Z,97525.03
2018-12-09T21:48:49.043Z,97489.06
2018-12-09T21:53:51.319Z,97514.22
2018-12-09T21:58:53.602Z,97516.90
2018-12-09T22:03:55.917Z,97518.97
2018-12-09T22:08:58.239Z,97518.59
2018-12-09T22:14:00.483Z,97539.30
2018-12-09T22:19:02.925Z,97538.09
2018-12-09T22:24:05.181Z,97542.92
2018-12-09T22:29:07.430Z,97549.73
2018-12-09T22:34:09.693Z,97572.78
2018-12-09T22:39:12.169Z,97600.21
2018-12-09T22:44:14.499Z,97606.70
2018-12-09T22:49:16.819Z,97605.91
2018-12-09T22:54:19.065Z,97643.09
2018-12-09T22:59:21.383Z,97630.91
2018-12-09T23:04:24.007Z,97617.34
2018-12-09T23:09:26.253Z,97622.39
2018-12-09T23:14:28.704Z,97640.53
2018-12-09T23:19:31.333Z,97651.38
2018-12-09T23:24:33.620Z,97668.92
2018-12-09T23:29:36.091Z,97680.73
2018-12-09T23:34:38.367Z,97686.58
2018-12-09T23:39:40.743Z,97691.73
2018-12-09T23:44:43.128Z,97690.59
2018-12-09T23:49:46.099Z,97701.72
2018-12-09T23:54:48.342Z,97696.23
2018-12-09T23:59:50.587Z,97693.75
